Time;durP1;ratioP1;P1;durP2;ratioP2;P2;SDS_P1;SDS_P2;PMS_P1;PMS_P2;Temp;Humidity;BMP_temperature;BMP_pressure;BME280_temperature;BME280_humidity;BME280_pressure;Samples;Min_cycle;Max_cycle;Signal;HPM_P1;HPM_P2
2020/12/22 00:00:30;;;;;;;45.10;22.50;;;;;;;0.90;86.92;100790.63;1711002;83;21155;-74
2020/12/22 00:02:58;;;;;;;47.40;23.73;;;;;;;0.91;86.93;100785.75;1710592;83;21167;-74
2020/12/22 00:05:24;;;;;;;50.35;24.07;;;;;;;0.91;86.94;100780.03;1710912;82;21204;-74
2020/12/22 00:07:50;;;;;;;43.00;19.35;;;;;;;0.90;86.95;100763.05;1710953;83;21190;-74
2020/12/22 00:10:17;;;;;;;54.75;29.00;;;;;;;0.90;86.95;100764.37;1712987;82;21140;-74
2020/12/22 00:12:43;;;;;;;60.58;28.77;;;;;;;0.88;86.94;100768.39;1729926;82;21624;-74
2020/12/22 00:15:10;;;;;;;58.15;27.87;;;;;;;0.89;86.94;100758.73;1740483;82;21171;-74
2020/12/22 00:17:39;;;;;;;55.12;27.00;;;;;;;0.90;86.96;100751.24;1740559;82;21258;-74
2020/12/22 00:20:05;;;;;;;54.83;26.75;;;;;;;0.90;86.97;100755.18;1740181;81;21189;-74
2020/12/22 00:22:31;;;;;;;58.55;28.25;;;;;;;0.89;86.97;100746.92;1740481;82;21598;-74
2020/12/22 00:24:57;;;;;;;51.88;25.97;;;;;;;0.87;86.97;100739.63;1740399;82;21116;-73
2020/12/22 00:27:24;;;;;;;50.73;23.67;;;;;;;0.88;86.96;100741.33;1740107;82;21140;-74
2020/12/22 00:29:50;;;;;;;49.13;23.70;;;;;;;0.90;86.97;100744.67;1710927;82;21261;-74
2020/12/22 00:32:16;;;;;;;44.25;23.27;;;;;;;0.91;86.96;100752.47;1711011;83;21558;-74
2020/12/22 00:34:42;;;;;;;50.35;24.75;;;;;;;0.93;86.94;100744.47;1721100;82;21183;-74
2020/12/22 00:37:09;;;;;;;42.05;22.62;;;;;;;0.98;86.96;100756.38;1737754;82;21549;-74
2020/12/22 00:39:35;;;;;;;45.95;24.63;;;;;;;1.03;86.97;100758.68;1711128;83;21155;-74
2020/12/22 00:42:01;;;;;;;50.15;26.97;;;;;;;1.06;86.96;100734.84;1710815;83;22074;-74
2020/12/22 00:44:28;;;;;;;62.05;28.35;;;;;;;1.08;86.97;100731.66;1710813;83;22394;-74
2020/12/22 00:46:54;;;;;;;57.10;26.73;;;;;;;1.08;86.96;100736.91;1710824;83;21130;-74
2020/12/22 00:49:21;;;;;;;51.63;25.90;;;;;;;1.07;86.98;100726.03;1725248;82;21121;-74
2020/12/22 00:51:47;;;;;;;56.65;24.82;;;;;;;1.06;86.98;100723.49;1750852;81;21112;-73
2020/12/22 00:54:13;;;;;;;46.95;23.32;;;;;;;1.04;86.98;100726.70;1744957;81;22030;-74
2020/12/22 00:56:39;;;;;;;45.25;21.80;;;;;;;1.02;86.98;100711.06;1720913;83;21151;-74
2020/12/22 00:59:06;;;;;;;41.37;20.55;;;;;;;1.01;86.98;100708.06;1747316;82;21156;-74
2020/12/22 01:01:32;;;;;;;41.98;22.25;;;;;;;1.02;86.98;100707.13;1750835;82;21132;-74
2020/12/22 01:03:59;;;;;;;41.45;19.87;;;;;;;1.04;86.99;100713.11;1750512;82;21132;-73
2020/12/22 01:06:30;;;;;;;45.38;22.13;;;;;;;1.06;86.97;100711.20;1750863;82;21210;-74
2020/12/22 01:08:56;;;;;;;48.78;22.45;;;;;;;1.09;86.96;100714.13;1701062;82;21577;-74
2020/12/22 01:11:23;;;;;;;51.10;23.02;;;;;;;1.13;86.97;100716.89;1745074;82;21147;-74
2020/12/22 01:13:54;;;;;;;46.68;23.05;;;;;;;1.14;86.97;100713.33;1720874;83;21464;-74
2020/12/22 01:16:20;;;;;;;47.10;23.20;;;;;;;1.15;86.98;100702.73;1746061;82;21144;-74
2020/12/22 01:18:46;;;;;;;41.63;22.65;;;;;;;1.16;86.98;100691.26;1750916;82;21270;-74
2020/12/22 01:21:20;;;;;;;45.75;21.82;;;;;;;1.17;86.97;100690.33;1750735;82;21160;-74
2020/12/22 01:23:47;;;;;;;39.18;20.85;;;;;;;1.19;86.96;100692.39;1750502;81;21164;-74
2020/12/22 01:26:19;;;;;;;43.58;21.62;;;;;;;1.21;86.96;100678.67;1720892;82;21116;-74
2020/12/22 01:28:45;;;;;;;37.23;20.85;;;;;;;1.22;86.95;100672.48;1720778;82;21140;-74
2020/12/22 01:31:12;;;;;;;41.58;23.15;;;;;;;1.25;86.94;100669.64;1721085;83;21176;-74
2020/12/22 01:33:38;;;;;;;38.38;20.02;;;;;;;1.26;86.96;100667.40;1720802;82;21176;-74
2020/12/22 01:36:04;;;;;;;50.92;24.30;;;;;;;1.27;86.95;100666.90;1720837;83;21763;-73
2020/12/22 01:38:31;;;;;;;44.03;23.10;;;;;;;1.26;86.96;100659.52;1720836;82;21168;-74
2020/12/22 01:40:57;;;;;;;46.20;22.90;;;;;;;1.26;86.94;100655.58;1721147;83;21120;-74
2020/12/22 01:43:23;;;;;;;40.92;21.10;;;;;;;1.27;86.93;100661.64;1722922;82;22206;-73
2020/12/22 01:45:49;;;;;;;39.13;20.35;;;;;;;1.27;86.95;100661.17;1720882;83;21606;-74
2020/12/22 01:48:15;;;;;;;38.17;19.73;;;;;;;1.27;86.93;100653.77;1720833;83;21184;-74
2020/12/22 01:50:42;;;;;;;39.80;19.30;;;;;;;1.29;86.95;100647.48;1720737;82;21132;-74
2020/12/22 01:53:09;;;;;;;38.85;20.17;;;;;;;1.33;86.94;100632.35;1721126;83;21432;-74
2020/12/22 01:55:42;;;;;;;43.30;20.92;;;;;;;1.36;86.94;100629.04;1720780;83;21257;-74
2020/12/22 01:58:09;;;;;;;41.13;20.75;;;;;;;1.39;86.92;100623.57;1721171;82;21193;-74
2020/12/22 02:00:36;;;;;;;37.70;20.77;;;;;;;1.43;86.92;100608.43;1720917;82;21542;-73
2020/12/22 02:03:05;;;;;;;39.33;20.80;;;;;;;1.46;86.90;100610.37;1720818;83;21609;-74
2020/12/22 02:05:36;;;;;;;35.60;19.65;;;;;;;1.49;86.91;100618.04;1721028;83;21188;-74
2020/12/22 02:08:03;;;;;;;38.15;20.35;;;;;;;1.53;86.91;100612.09;1720960;83;21205;-74
2020/12/22 02:10:29;;;;;;;39.03;19.98;;;;;;;1.59;86.89;100609.50;1721590;82;21144;-74
2020/12/22 02:12:55;;;;;;;37.08;19.52;;;;;;;1.61;86.88;100604.99;1720858;83;21534;-74
2020/12/22 02:15:22;;;;;;;37.10;19.62;;;;;;;1.65;86.88;100588.06;1721268;82;21172;-74
2020/12/22 02:17:48;;;;;;;36.20;17.95;;;;;;;1.69;86.86;100586.40;1721000;82;21167;-74
2020/12/22 02:20:14;;;;;;;36.85;19.17;;;;;;;1.72;86.84;100575.70;1720989;83;22015;-74
2020/12/22 02:22:40;;;;;;;36.65;18.12;;;;;;;1.76;86.84;100578.95;1720808;83;21164;-74
2020/12/22 02:25:16;;;;;;;34.15;15.55;;;;;;;1.80;86.81;100571.17;1720542;83;21176;-74
2020/12/22 02:27:43;;;;;;;33.38;17.10;;;;;;;1.85;86.81;100561.19;1720988;83;21187;-74
2020/12/22 02:30:10;;;;;;;33.35;17.20;;;;;;;1.89;86.81;100563.96;1720816;83;21159;-74
2020/12/22 02:32:36;;;;;;;31.48;16.85;;;;;;;1.91;86.81;100551.53;1720810;83;22171;-74
2020/12/22 02:35:04;;;;;;;33.58;17.82;;;;;;;1.93;86.79;100537.34;1728266;82;21601;-74
2020/12/22 02:37:30;;;;;;;34.00;17.95;;;;;;;1.95;86.77;100526.22;1750985;82;21586;-74
2020/12/22 02:39:56;;;;;;;32.65;18.50;;;;;;;1.96;86.76;100530.54;1750893;82;21565;-74
2020/12/22 02:42:22;;;;;;;34.50;17.50;;;;;;;1.98;86.76;100535.67;1750677;81;21180;-74
2020/12/22 02:44:49;;;;;;;33.53;17.05;;;;;;;1.98;86.74;100531.72;1751004;82;21176;-74
2020/12/22 02:47:15;;;;;;;31.27;16.23;;;;;;;2.00;86.72;100521.95;1750823;82;21168;-74
2020/12/22 02:49:42;;;;;;;27.37;15.83;;;;;;;2.04;86.71;100517.30;1744694;81;21156;-74
2020/12/22 02:52:09;;;;;;;33.80;16.60;;;;;;;2.06;86.68;100512.28;1731476;82;21152;-74
2020/12/22 02:54:35;;;;;;;31.10;17.30;;;;;;;2.11;86.68;100510.64;1731414;82;21688;-74
2020/12/22 02:57:02;;;;;;;31.35;16.57;;;;;;;2.13;86.68;100495.09;1731538;82;21251;-74
2020/12/22 02:59:28;;;;;;;31.62;16.85;;;;;;;2.19;86.67;100499.05;1731698;82;21176;-74
2020/12/22 03:01:54;;;;;;;28.55;16.57;;;;;;;2.20;86.66;100491.53;1711697;82;21152;-74
2020/12/22 03:04:20;;;;;;;28.75;16.15;;;;;;;2.21;86.61;100486.17;1702473;82;21246;-74
2020/12/22 03:06:47;;;;;;;29.05;14.85;;;;;;;2.23;86.61;100482.94;1702493;84;21165;-74
2020/12/22 03:09:14;;;;;;;30.75;15.98;;;;;;;2.24;86.59;100483.30;1702534;82;21216;-74
2020/12/22 03:11:41;;;;;;;25.00;13.80;;;;;;;2.27;86.57;100486.17;1702304;84;21192;-74
2020/12/22 03:14:07;;;;;;;26.40;13.65;;;;;;;2.30;86.56;100478.89;1702185;84;21156;-74
2020/12/22 03:16:33;;;;;;;26.50;15.32;;;;;;;2.32;86.54;100474.34;1702424;84;21140;-74
2020/12/22 03:18:59;;;;;;;27.80;15.43;;;;;;;2.37;86.53;100470.89;1702407;84;21217;-74
2020/12/22 03:21:26;;;;;;;28.92;16.67;;;;;;;2.39;86.51;100474.23;1702445;84;22041;-74
2020/12/22 03:23:52;;;;;;;29.20;15.53;;;;;;;2.44;86.50;100462.90;1702388;84;21601;-73
2020/12/22 03:26:18;;;;;;;29.90;16.75;;;;;;;2.47;86.46;100457.39;1704023;82;21148;-73
2020/12/22 03:28:45;;;;;;;30.60;15.72;;;;;;;2.49;86.46;100452.88;1731613;82;21244;-73
2020/12/22 03:31:11;;;;;;;25.97;14.10;;;;;;;2.53;86.42;100455.27;1731391;82;21173;-74
2020/12/22 03:33:37;;;;;;;27.45;14.20;;;;;;;2.56;86.41;100452.39;1731722;81;21566;-74
2020/12/22 03:36:03;;;;;;;26.25;13.13;;;;;;;2.58;86.36;100450.47;1731489;82;21593;-74
2020/12/22 03:38:30;;;;;;;29.72;14.65;;;;;;;2.61;86.37;100439.70;1731668;82;21531;-74
2020/12/22 03:40:56;;;;;;;23.50;13.70;;;;;;;2.63;86.36;100436.48;1731630;82;21124;-74
2020/12/22 03:43:22;;;;;;;24.75;14.18;;;;;;;2.67;86.33;100432.19;1731588;81;21117;-74
2020/12/22 03:45:49;;;;;;;28.27;15.40;;;;;;;2.71;86.30;100432.79;1731628;82;21262;-74
2020/12/22 03:48:15;;;;;;;27.95;15.55;;;;;;;2.75;86.29;100426.30;1731452;82;21152;-74
2020/12/22 03:50:42;;;;;;;29.32;14.73;;;;;;;2.76;86.26;100418.77;1708200;82;21160;-74
2020/12/22 03:53:08;;;;;;;30.35;14.75;;;;;;;2.79;86.27;100425.11;1716285;82;21585;-74
2020/12/22 03:55:34;;;;;;;71.57;24.98;;;;;;;2.83;86.22;100416.02;1731370;81;21168;-74
2020/12/22 03:58:01;;;;;;;47.40;17.32;;;;;;;2.86;86.17;100401.29;1731555;82;21210;-74
2020/12/22 04:00:27;;;;;;;37.10;16.55;;;;;;;2.88;86.14;100390.17;1731633;82;21128;-74
2020/12/22 04:02:53;;;;;;;24.72;13.58;;;;;;;2.92;86.13;100391.61;1731627;82;21140;-74
2020/12/22 04:05:19;;;;;;;28.42;14.30;;;;;;;2.95;86.11;100378.20;1731504;82;21608;-74
2020/12/22 04:07:46;;;;;;;26.75;14.13;;;;;;;2.98;86.11;100375.31;1731603;82;21149;-74
2020/12/22 04:10:12;;;;;;;25.77;15.18;;;;;;;3.01;86.07;100371.11;1731597;82;21202;-74
2020/12/22 04:12:38;;;;;;;27.42;14.33;;;;;;;3.04;86.06;100369.55;1731443;82;21310;-74
2020/12/22 04:15:05;;;;;;;25.50;14.10;;;;;;;3.08;86.02;100368.34;1731619;82;21637;-74
2020/12/22 04:17:32;;;;;;;22.82;11.93;;;;;;;3.13;85.98;100366.16;1731542;82;21164;-74
2020/12/22 04:19:58;;;;;;;25.37;13.62;;;;;;;3.16;85.94;100364.62;1706984;82;21188;-74
2020/12/22 04:22:24;;;;;;;21.02;11.60;;;;;;;3.21;85.92;100358.96;1702162;84;22184;-74
2020/12/22 04:24:50;;;;;;;22.37;12.37;;;;;;;3.24;85.88;100354.28;1702365;84;21125;-74
2020/12/22 04:27:17;;;;;;;22.17;12.43;;;;;;;3.26;85.86;100340.52;1702156;84;21152;-74
2020/12/22 04:29:43;;;;;;;20.90;11.83;;;;;;;3.29;85.83;100340.27;1702473;84;21156;-74
2020/12/22 04:32:09;;;;;;;22.85;13.10;;;;;;;3.30;85.80;100339.31;1702252;84;21212;-74
2020/12/22 04:34:36;;;;;;;27.32;15.10;;;;;;;3.32;85.80;100336.05;1702481;84;21311;-74
2020/12/22 04:37:02;;;;;;;21.15;11.57;;;;;;;3.33;85.77;100329.83;1702216;83;21543;-74
2020/12/22 04:39:28;;;;;;;20.57;11.78;;;;;;;3.34;85.73;100326.21;1702384;84;21547;-74
2020/12/22 04:41:54;;;;;;;18.15;10.72;;;;;;;3.35;85.70;100325.73;1702541;82;21132;-74
2020/12/22 04:44:21;;;;;;;20.77;11.15;;;;;;;3.35;85.67;100325.26;1731464;82;21168;-74
2020/12/22 04:46:51;;;;;;;22.42;12.03;;;;;;;3.36;85.64;100322.14;1712120;82;21245;-74
2020/12/22 04:49:22;;;;;;;23.15;12.65;;;;;;;3.36;85.62;100309.81;1702272;84;21203;-74
2020/12/22 04:51:50;;;;;;;24.92;13.15;;;;;;;3.38;85.60;100318.89;1717521;82;21136;-74
2020/12/22 04:54:19;;;;;;;27.80;14.23;;;;;;;3.36;85.56;100315.08;1720950;83;21419;-74
2020/12/22 04:56:46;;;;;;;20.48;11.63;;;;;;;3.34;85.56;100322.26;1721160;83;21136;-74
2020/12/22 04:59:14;;;;;;;19.17;10.72;;;;;;;3.32;85.55;100315.45;1721047;83;21979;-74
2020/12/22 05:01:44;;;;;;;24.50;13.20;;;;;;;3.28;85.51;100312.23;1720881;83;21160;-74
2020/12/22 05:04:11;;;;;;;25.27;11.83;;;;;;;3.27;85.52;100310.55;1696191;83;21188;-74
2020/12/22 05:06:38;;;;;;;25.57;12.88;;;;;;;3.25;85.51;100309.84;1720912;82;21609;-74
2020/12/22 05:09:05;;;;;;;29.10;14.80;;;;;;;3.25;85.51;100315.59;1720872;83;21159;-74
2020/12/22 05:11:36;;;;;;;24.55;13.28;;;;;;;3.25;85.51;100315.12;1727399;82;21195;-74
2020/12/22 05:14:04;;;;;;;22.27;12.43;;;;;;;3.25;85.52;100311.17;1714926;83;21192;-74
2020/12/22 05:16:32;;;;;;;24.75;13.98;;;;;;;3.24;85.50;100302.89;1750894;82;21120;-74
2020/12/22 05:18:59;;;;;;;38.05;18.45;;;;;;;3.23;85.51;100306.52;1681571;82;21143;-74
2020/12/22 05:21:25;;;;;;;27.75;13.35;;;;;;;3.22;85.50;100300.88;1699866;82;21608;-74
2020/12/22 05:23:51;;;;;;;22.10;12.43;;;;;;;3.22;85.51;100299.56;1750740;82;21629;-74
2020/12/22 05:26:21;;;;;;;24.45;14.07;;;;;;;3.22;85.52;100298.72;1699856;82;21220;-74
2020/12/22 05:28:48;;;;;;;21.55;11.12;;;;;;;3.21;85.54;100294.41;1750896;82;21160;-74
2020/12/22 05:31:16;;;;;;;24.87;12.10;;;;;;;3.19;85.55;100287.96;1750595;82;21163;-74
2020/12/22 05:33:46;;;;;;;47.95;20.57;;;;;;;3.20;85.57;100280.90;1729701;82;21150;-74
2020/12/22 05:36:12;;;;;;;20.23;11.68;;;;;;;3.18;85.59;100284.96;1729481;82;21552;-74
2020/12/22 05:38:39;;;;;;;41.80;19.60;;;;;;;3.18;85.60;100282.80;1750877;82;21207;-74
2020/12/22 05:41:05;;;;;;;29.30;13.48;;;;;;;3.17;85.61;100274.06;1725165;82;21163;-74
2020/12/22 05:43:42;;;;;;;23.55;12.50;;;;;;;3.16;85.63;100265.83;1750706;82;21605;-74
2020/12/22 05:46:09;;;;;;;18.85;11.12;;;;;;;3.16;85.64;100271.09;1750471;82;21129;-74
2020/12/22 05:48:35;;;;;;;23.10;12.18;;;;;;;3.18;85.68;100265.20;1750752;81;21622;-74
2020/12/22 05:51:03;;;;;;;21.45;12.60;;;;;;;3.18;85.69;100263.88;1746939;81;21132;-74
2020/12/22 05:53:29;;;;;;;19.10;10.80;;;;;;;3.20;85.73;100266.41;1740281;82;21490;-74
2020/12/22 05:55:57;;;;;;;22.60;12.63;;;;;;;3.21;85.75;100255.72;1740585;82;21200;-74
2020/12/22 05:58:30;;;;;;;20.57;12.07;;;;;;;3.21;85.77;100258.36;1700647;82;21093;-74
2020/12/22 06:00:56;;;;;;;22.90;12.50;;;;;;;3.22;85.81;100247.34;1741060;81;21216;-74
2020/12/22 06:03:23;;;;;;;25.20;13.55;;;;;;;3.22;85.81;100234.17;1699501;82;21117;-74
2020/12/22 06:05:49;;;;;;;42.38;17.32;;;;;;;3.22;85.84;100233.69;1741091;82;21109;-74
2020/12/22 06:08:16;;;;;;;21.15;11.12;;;;;;;3.22;85.86;100227.10;1740774;82;21109;-74
2020/12/22 06:10:43;;;;;;;21.00;11.33;;;;;;;3.24;85.87;100223.84;1739491;82;21092;-74
2020/12/22 06:13:11;;;;;;;20.08;10.98;;;;;;;3.26;85.89;100216.67;1741388;82;21235;-75
2020/12/22 06:15:38;;;;;;;21.45;11.80;;;;;;;3.27;85.92;100218.31;1741241;82;21144;-74
2020/12/22 06:18:05;;;;;;;23.50;11.83;;;;;;;3.28;85.94;100204.19;1735044;81;21129;-74
2020/12/22 06:20:31;;;;;;;20.65;11.10;;;;;;;3.29;85.98;100201.08;1736146;82;21100;-74
2020/12/22 06:23:05;;;;;;;23.25;12.35;;;;;;;3.30;86.00;100199.64;1720249;82;21151;-74
2020/12/22 06:25:34;;;;;;;24.55;12.18;;;;;;;3.31;86.03;100187.27;1732362;82;21200;-74
2020/12/22 06:28:00;;;;;;;22.05;11.70;;;;;;;3.30;86.05;100182.98;1719931;82;21108;-75
2020/12/22 06:30:38;;;;;;;24.72;12.65;;;;;;;3.29;86.09;100179.99;1719661;82;21089;-74
2020/12/22 06:33:23;;;;;;;17.32;10.30;;;;;;;3.27;86.09;100164.80;1731612;82;21152;-74
2020/12/22 06:36:04;;;;;;;19.80;11.08;;;;;;;3.27;86.12;100168.25;1729520;82;21569;-74
2020/12/22 06:41:41;;;;;;;21.77;12.55;;;;;;;3.34;86.20;100157.55;1850607;77;22698;-74
2020/12/22 06:44:25;;;;;;;25.65;13.08;;;;;;;3.31;86.21;100160.92;1835412;77;21167;-75
2020/12/22 06:46:56;;;;;;;19.40;10.68;;;;;;;3.31;86.24;100153.86;1841068;77;21113;-74
2020/12/22 06:49:51;;;;;;;22.22;11.57;;;;;;;3.31;86.28;100147.27;1836710;77;21108;-74
2020/12/22 06:52:38;;;;;;;19.98;10.72;;;;;;;3.30;86.29;100144.30;1830033;77;21103;-75
2020/12/22 06:55:06;;;;;;;32.00;16.35;;;;;;;3.28;86.31;100140.94;1852927;76;21568;-74
2020/12/22 06:57:49;;;;;;;23.30;12.60;;;;;;;3.27;86.34;100123.96;1838906;77;21048;-74
2020/12/22 07:00:30;;;;;;;20.52;11.40;;;;;;;3.27;86.37;100131.87;1860194;76;22046;-74
2020/12/22 07:03:16;;;;;;;23.75;12.07;;;;;;;3.28;86.38;100130.88;1855267;77;21124;-74
2020/12/22 07:05:48;;;;;;;19.73;10.65;;;;;;;3.30;86.40;100127.17;1831540;77;21070;-74
2020/12/22 07:08:17;;;;;;;26.62;13.43;;;;;;;3.31;86.45;100101.15;1835418;77;21100;-75
2020/12/22 07:10:46;;;;;;;21.10;12.50;;;;;;;3.30;86.47;100112.67;1848757;77;21087;-75
2020/12/22 07:13:14;;;;;;;20.37;11.57;;;;;;;3.31;86.51;100114.33;1831353;77;21147;-75
2020/12/22 07:15:47;;;;;;;21.23;10.55;;;;;;;3.31;86.54;100109.05;1827102;77;21624;-75
2020/12/22 07:18:19;;;;;;;22.55;10.93;;;;;;;3.33;86.56;100114.20;1829738;78;21719;-75
2020/12/22 07:20:46;;;;;;;23.40;10.43;;;;;;;3.33;86.57;100104.50;1802294;78;21083;-75
2020/12/22 07:23:13;;;;;;;23.35;13.00;;;;;;;3.34;86.59;100110.62;1825719;77;21089;-74
2020/12/22 07:25:40;;;;;;;24.27;13.08;;;;;;;3.35;86.61;100107.83;1823206;78;21186;-74
2020/12/22 07:28:09;;;;;;;25.05;12.47;;;;;;;3.37;86.65;100106.39;1823115;78;21226;-74
2020/12/22 07:30:35;;;;;;;22.42;11.15;;;;;;;3.38;86.67;100099.66;1826471;77;21512;-74
2020/12/22 07:33:02;;;;;;;21.57;11.20;;;;;;;3.39;86.69;100105.77;1829666;78;21586;-74
2020/12/22 07:35:28;;;;;;;19.85;10.88;;;;;;;3.37;86.71;100095.38;1829704;78;21538;-74
2020/12/22 07:38:08;;;;;;;22.00;12.47;;;;;;;3.39;86.72;100090.80;1831343;78;21134;-74
2020/12/22 07:40:39;;;;;;;20.30;11.73;;;;;;;3.41;86.74;100088.84;1832533;77;21056;-74
2020/12/22 07:43:13;;;;;;;20.70;10.08;;;;;;;3.43;87.07;100087.41;1831533;77;21190;-75
2020/12/22 07:45:49;;;;;;;18.92;10.68;;;;;;;3.44;86.78;100079.39;1832398;78;21175;-75
2020/12/22 07:48:17;;;;;;;24.35;11.55;;;;;;;3.47;86.83;100084.87;1832281;77;21132;-75
2020/12/22 07:50:44;;;;;;;40.70;19.82;;;;;;;3.49;86.85;100070.58;1831992;77;21563;-74
2020/12/22 07:53:10;;;;;;;34.48;21.55;;;;;;;3.51;86.87;100073.94;1831699;78;21180;-74
2020/12/22 07:55:40;;;;;;;22.82;12.00;;;;;;;3.51;86.91;100054.64;1831455;77;21162;-74
2020/12/22 07:58:08;;;;;;;25.82;15.43;;;;;;;3.53;86.93;100071.98;1831440;77;21532;-74
2020/12/22 08:00:34;;;;;;;23.02;11.22;;;;;;;3.56;86.93;100056.38;1831686;77;21115;-74
2020/12/22 08:03:16;;;;;;;15.78;9.28;;;;;;;3.57;86.95;100064.64;1831715;78;21194;-74
2020/12/22 08:06:03;;;;;;;22.42;11.38;;;;;;;3.61;86.96;100058.14;1831556;77;21537;-74
2020/12/22 08:08:29;;;;;;;28.50;14.13;;;;;;;3.65;86.99;100058.71;1831418;78;21119;-75
2020/12/22 08:10:56;;;;;;;31.12;17.45;;;;;;;3.69;87.02;100057.48;1831622;78;21521;-75
2020/12/22 08:13:25;;;;;;;22.80;11.85;;;;;;;3.72;87.05;100051.93;1815315;78;21582;-74
2020/12/22 08:15:52;;;;;;;21.73;10.72;;;;;;;3.75;87.06;100046.38;1815632;78;21174;-74
2020/12/22 08:18:18;;;;;;;34.13;15.72;;;;;;;3.74;87.08;100046.02;1831526;77;21569;-74
2020/12/22 08:20:45;;;;;;;20.40;10.82;;;;;;;3.76;87.11;100046.74;1831515;78;21127;-75
2020/12/22 08:23:11;;;;;;;53.55;25.20;;;;;;;3.76;87.12;100048.06;1831546;77;21116;-75
2020/12/22 08:25:37;;;;;;;44.65;21.17;;;;;;;3.79;87.19;100042.52;1831740;78;21155;-74
2020/12/22 08:28:03;;;;;;;23.27;9.33;;;;;;;3.82;87.18;100047.52;1831855;77;21194;-75
2020/12/22 08:30:32;;;;;;;25.25;11.75;;;;;;;3.84;87.21;100043.76;1831294;78;21120;-75
2020/12/22 08:32:58;;;;;;;38.42;18.50;;;;;;;3.85;87.23;100059.10;1831654;77;21187;-75
2020/12/22 08:35:24;;;;;;;21.57;11.25;;;;;;;3.87;87.22;100053.23;1831639;78;21133;-75
2020/12/22 08:37:51;;;;;;;48.00;20.02;;;;;;;3.89;87.24;100051.27;1831523;77;21116;-75
2020/12/22 08:40:30;;;;;;;41.15;17.23;;;;;;;3.91;87.29;100047.52;1831535;77;22145;-75
2020/12/22 08:42:57;;;;;;;22.52;9.58;;;;;;;3.92;87.31;100051.84;1831408;77;21131;-75
2020/12/22 08:45:26;;;;;;;21.33;11.43;;;;;;;3.94;87.32;100050.39;1831807;77;21052;-75
2020/12/22 08:47:52;;;;;;;38.38;19.87;;;;;;;3.97;87.35;100051.44;1831341;77;21096;-75
2020/12/22 08:50:19;;;;;;;55.33;21.17;;;;;;;4.01;87.35;100043.60;1831807;77;21124;-75
2020/12/22 08:52:45;;;;;;;25.80;11.05;;;;;;;4.03;87.37;100030.61;1831473;77;21195;-74
2020/12/22 08:55:12;;;;;;;34.33;14.20;;;;;;;4.07;87.38;100023.26;1831627;78;21104;-75
2020/12/22 08:57:38;;;;;;;24.87;11.28;;;;;;;4.11;87.40;100018.05;1831524;78;21124;-75
2020/12/22 09:00:15;;;;;;;23.02;10.72;;;;;;;4.16;87.43;100018.45;1795182;79;21103;-75
2020/12/22 09:02:51;;;;;;;25.95;11.93;;;;;;;4.20;87.44;100014.58;1771419;80;21085;-75
2020/12/22 09:05:21;;;;;;;17.95;7.90;;;;;;;4.24;87.46;100025.20;1761489;81;21193;-75
2020/12/22 09:07:58;;;;;;;15.40;8.18;;;;;;;4.29;87.46;100016.87;1765308;80;21171;-75
2020/12/22 09:10:25;;;;;;;22.80;11.73;;;;;;;4.33;87.48;100016.44;1792956;80;21548;-75
2020/12/22 09:12:51;;;;;;;18.75;9.05;;;;;;;4.40;87.50;100021.51;1793006;79;21135;-75
2020/12/22 09:15:17;;;;;;;16.97;7.97;;;;;;;4.44;87.51;100007.06;1765451;81;21147;-75
2020/12/22 09:17:44;;;;;;;35.68;15.80;;;;;;;4.48;87.53;100011.09;1792896;78;22025;-75
2020/12/22 09:20:12;;;;;;;38.65;17.52;;;;;;;4.52;87.55;100019.08;1792966;79;21115;-75
2020/12/22 09:22:38;;;;;;;13.98;7.28;;;;;;;4.55;87.57;100007.39;1717356;82;21200;-75
2020/12/22 09:25:07;;;;;;;12.03;6.67;;;;;;;4.56;87.59;99998.51;1749888;82;21215;-75
2020/12/22 09:27:38;;;;;;;21.35;11.00;;;;;;;4.60;87.62;100005.66;1749735;82;21117;-75
2020/12/22 09:30:10;;;;;;;15.95;8.15;;;;;;;4.62;87.61;100005.02;1749982;80;21552;-75
2020/12/22 09:32:36;;;;;;;10.25;6.45;;;;;;;4.64;87.62;100003.09;1779970;79;21425;-75
2020/12/22 09:35:03;;;;;;;17.80;7.05;;;;;;;4.67;87.65;100003.64;1775744;80;21180;-75
2020/12/22 09:37:30;;;;;;;14.00;7.67;;;;;;;4.69;87.67;100003.00;1773973;80;21152;-75
2020/12/22 09:39:56;;;;;;;14.87;9.73;;;;;;;4.72;87.68;99997.42;1773572;80;21159;-75
2020/12/22 09:42:23;;;;;;;168.50;124.02;;;;;;;4.74;87.71;99990.20;1785807;80;22006;-75
2020/12/22 09:44:50;;;;;;;83.97;46.23;;;;;;;4.80;87.73;99990.11;1785901;80;21133;-75
2020/12/22 09:47:16;;;;;;;153.27;80.75;;;;;;;4.82;87.74;99982.38;1776954;80;21810;-75
2020/12/22 09:49:43;;;;;;;68.37;30.68;;;;;;;4.85;87.75;99969.39;1758872;81;21591;-75
2020/12/22 09:52:10;;;;;;;76.30;30.17;;;;;;;4.89;87.77;99978.70;1727257;82;21157;-75
2020/12/22 09:54:36;;;;;;;66.87;34.75;;;;;;;4.94;87.79;99964.55;1759239;81;21203;-75
2020/12/22 09:57:02;;;;;;;54.53;21.02;;;;;;;4.96;87.79;99972.67;1739198;81;21145;-75
2020/12/22 09:59:29;;;;;;;81.72;28.25;;;;;;;4.99;87.80;99958.36;1759059;81;21186;-75
2020/12/22 10:02:00;;;;;;;43.50;13.08;;;;;;;5.04;87.82;99956.09;1727173;82;21577;-75
2020/12/22 10:04:27;;;;;;;35.30;11.45;;;;;;;5.07;87.85;99950.52;1759007;81;21595;-75
2020/12/22 10:06:53;;;;;;;31.42;13.05;;;;;;;5.11;87.88;99950.57;1739475;82;21172;-75
2020/12/22 10:09:19;;;;;;;31.40;11.08;;;;;;;5.15;87.89;99947.98;1760709;81;21144;-75
2020/12/22 10:11:46;;;;;;;20.80;9.85;;;;;;;5.19;87.91;99945.39;1758190;80;21116;-75
2020/12/22 10:14:12;;;;;;;36.75;13.70;;;;;;;5.22;87.92;99946.42;1763363;80;21546;-75
2020/12/22 10:16:38;;;;;;;33.58;13.20;;;;;;;5.24;87.92;99944.45;1758986;81;21174;-75
2020/12/22 10:19:05;;;;;;;35.73;15.13;;;;;;;5.26;87.92;99945.15;1757640;80;21215;-75
2020/12/22 10:21:31;;;;;;;28.52;11.73;;;;;;;5.29;87.95;99939.56;1773896;80;21148;-75
2020/12/22 10:23:59;;;;;;;64.87;35.80;;;;;;;5.33;87.96;99931.69;1767946;80;21204;-75
2020/12/22 10:26:26;;;;;;;69.03;30.62;;;;;;;5.41;87.95;99933.11;1788127;80;21195;-75
2020/12/22 10:28:53;;;;;;;29.40;13.58;;;;;;;5.46;87.98;99944.05;1792344;80;21591;-75
2020/12/22 10:31:20;;;;;;;35.58;17.25;;;;;;;5.48;87.97;99947.40;1780373;80;21199;-75
2020/12/22 10:33:47;;;;;;;90.87;38.85;;;;;;;5.53;87.99;99937.19;1786217;79;21737;-75
2020/12/22 10:36:14;;;;;;;41.30;21.07;;;;;;;5.63;88.02;99929.18;1774921;80;21592;-75
2020/12/22 10:38:40;;;;;;;17.25;9.28;;;;;;;5.68;88.04;99924.77;1792397;79;21612;-75
2020/12/22 10:41:07;;;;;;;21.80;9.05;;;;;;;5.69;88.04;99919.83;1792824;79;21584;-75
2020/12/22 10:43:33;;;;;;;71.28;27.67;;;;;;;5.75;88.07;99921.87;1794151;79;21188;-75
2020/12/22 10:46:01;;;;;;;94.72;38.95;;;;;;;5.80;88.05;99916.97;1794485;79;21150;-75
2020/12/22 10:48:28;;;;;;;23.15;16.20;;;;;;;5.87;88.04;99923.35;1777756;79;21131;-75
2020/12/22 10:50:54;;;;;;;12.88;7.47;;;;;;;5.95;88.06;99918.11;1758851;79;21138;-75
2020/12/22 10:53:20;;;;;;;18.82;7.37;;;;;;;6.01;88.07;99923.66;1762956;79;21128;-75
2020/12/22 10:55:47;;;;;;;9.40;6.53;;;;;;;6.10;88.07;99915.76;1762893;81;22093;-76
2020/12/22 10:58:13;;;;;;;24.70;14.63;;;;;;;6.18;88.07;99920.64;1762525;81;21158;-75
2020/12/22 11:00:40;;;;;;;11.73;7.35;;;;;;;6.28;88.09;99922.70;1762989;81;21130;-75
2020/12/22 11:03:08;;;;;;;29.23;16.52;;;;;;;6.37;88.09;99916.46;1763148;81;21678;-75
2020/12/22 11:08:20;;;;;;;19.07;12.53;;;;;;;6.46;88.11;99910.25;1763203;81;21445;-75
2020/12/22 11:10:48;;;;;;;12.98;7.70;;;;;;;6.53;88.13;99906.00;1762459;81;21014;-75
2020/12/22 11:13:14;;;;;;;18.60;8.80;;;;;;;6.59;88.15;99898.39;1769635;79;21210;-75
2020/12/22 11:15:41;;;;;;;11.08;7.62;;;;;;;6.66;88.18;99902.08;1761500;81;21179;-75
2020/12/22 11:18:07;;;;;;;12.85;6.35;;;;;;;6.71;88.17;99909.08;1761443;81;21175;-75
2020/12/22 11:20:36;;;;;;;12.28;6.78;;;;;;;6.76;88.18;99894.84;1762344;79;21202;-75
2020/12/22 11:23:04;;;;;;;8.10;4.72;;;;;;;6.87;88.17;99898.55;1760852;81;21216;-75
2020/12/22 11:25:30;;;;;;;6.00;3.85;;;;;;;7.03;88.19;99902.61;1787005;79;21180;-75
2020/12/22 11:27:57;;;;;;;11.30;7.35;;;;;;;7.19;88.20;99908.45;1774506;79;21243;-75